sensor_id;sensor_type;location;lat;lon;timestamp;P1;durP1;ratioP1;P2;durP2;ratioP2
75413;SDS011;64758;52.122;5.404;2022-11-15T00:00:50;25.77;;;10.07;;
75413;SDS011;64758;52.122;5.404;2022-11-15T00:03:17;26.33;;;10.80;;
75413;SDS011;64758;52.122;5.404;2022-11-15T00:05:45;26.27;;;11.30;;
75413;SDS011;64758;52.122;5.404;2022-11-15T00:08:12;25.23;;;11.02;;
75413;SDS011;64758;52.122;5.404;2022-11-15T00:10:39;28.77;;;12.38;;
75413;SDS011;64758;52.122;5.404;2022-11-15T00:13:06;24.40;;;10.80;;
75413;SDS011;64758;52.122;5.404;2022-11-15T00:15:34;28.77;;;11.15;;
75413;SDS011;64758;52.122;5.404;2022-11-15T00:18:02;31.13;;;12.23;;
75413;SDS011;64758;52.122;5.404;2022-11-15T00:20:30;31.48;;;11.85;;
75413;SDS011;64758;52.122;5.404;2022-11-15T00:22:59;29.05;;;12.02;;
75413;SDS011;64758;52.122;5.404;2022-11-15T00:25:25;32.53;;;12.32;;
75413;SDS011;64758;52.122;5.404;2022-11-15T00:27:56;27.40;;;11.23;;
75413;SDS011;64758;52.122;5.404;2022-11-15T00:30:24;32.87;;;12.40;;
75413;SDS011;64758;52.122;5.404;2022-11-15T00:32:51;32.13;;;11.77;;
75413;SDS011;64758;52.122;5.404;2022-11-15T00:35:18;31.90;;;11.95;;
75413;SDS011;64758;52.122;5.404;2022-11-15T00:37:44;35.63;;;12.82;;
75413;SDS011;64758;52.122;5.404;2022-11-15T00:40:13;38.15;;;13.60;;
75413;SDS011;64758;52.122;5.404;2022-11-15T00:42:41;32.50;;;12.90;;
75413;SDS011;64758;52.122;5.404;2022-11-15T00:45:07;36.60;;;13.15;;
75413;SDS011;64758;52.122;5.404;2022-11-15T00:47:35;39.78;;;12.68;;
75413;SDS011;64758;52.122;5.404;2022-11-15T00:50:01;45.53;;;13.48;;
75413;SDS011;64758;52.122;5.404;2022-11-15T00:52:28;37.25;;;13.45;;
75413;SDS011;64758;52.122;5.404;2022-11-15T00:54:54;35.63;;;12.80;;
75413;SDS011;64758;52.122;5.404;2022-11-15T00:57:21;41.47;;;13.70;;
75413;SDS011;64758;52.122;5.404;2022-11-15T00:59:47;44.42;;;14.13;;
75413;SDS011;64758;52.122;5.404;2022-11-15T01:02:14;37.45;;;12.40;;
75413;SDS011;64758;52.122;5.404;2022-11-15T01:04:40;40.35;;;14.02;;
75413;SDS011;64758;52.122;5.404;2022-11-15T01:07:06;37.00;;;14.03;;
75413;SDS011;64758;52.122;5.404;2022-11-15T01:09:33;39.40;;;12.63;;
75413;SDS011;64758;52.122;5.404;2022-11-15T01:12:00;37.08;;;13.15;;
75413;SDS011;64758;52.122;5.404;2022-11-15T01:14:26;32.63;;;13.02;;
75413;SDS011;64758;52.122;5.404;2022-11-15T01:16:53;39.88;;;13.45;;
75413;SDS011;64758;52.122;5.404;2022-11-15T01:19:19;34.93;;;13.80;;
75413;SDS011;64758;52.122;5.404;2022-11-15T01:21:48;29.15;;;12.63;;
75413;SDS011;64758;52.122;5.404;2022-11-15T01:24:15;39.30;;;12.63;;
75413;SDS011;64758;52.122;5.404;2022-11-15T01:26:41;36.58;;;13.63;;
75413;SDS011;64758;52.122;5.404;2022-11-15T01:29:08;32.40;;;12.90;;
75413;SDS011;64758;52.122;5.404;2022-11-15T01:31:34;34.70;;;12.67;;
75413;SDS011;64758;52.122;5.404;2022-11-15T01:34:01;40.30;;;14.68;;
75413;SDS011;64758;52.122;5.404;2022-11-15T01:36:27;32.90;;;13.38;;
75413;SDS011;64758;52.122;5.404;2022-11-15T01:38:54;36.45;;;12.88;;
75413;SDS011;64758;52.122;5.404;2022-11-15T01:41:24;31.90;;;12.80;;
75413;SDS011;64758;52.122;5.404;2022-11-15T01:43:53;35.47;;;13.20;;
75413;SDS011;64758;52.122;5.404;2022-11-15T01:48:47;37.60;;;13.18;;
75413;SDS011;64758;52.122;5.404;2022-11-15T01:51:17;29.50;;;12.60;;
75413;SDS011;64758;52.122;5.404;2022-11-15T01:53:47;33.80;;;12.18;;
75413;SDS011;64758;52.122;5.404;2022-11-15T01:56:19;35.53;;;12.93;;
75413;SDS011;64758;52.122;5.404;2022-11-15T01:58:49;33.45;;;12.45;;
75413;SDS011;64758;52.122;5.404;2022-11-15T02:01:18;37.08;;;13.35;;
75413;SDS011;64758;52.122;5.404;2022-11-15T02:03:50;41.55;;;13.43;;
75413;SDS011;64758;52.122;5.404;2022-11-15T02:06:20;37.80;;;12.77;;
75413;SDS011;64758;52.122;5.404;2022-11-15T02:08:48;34.57;;;13.33;;
75413;SDS011;64758;52.122;5.404;2022-11-15T02:11:16;34.28;;;12.38;;
75413;SDS011;64758;52.122;5.404;2022-11-15T02:13:42;33.78;;;12.63;;
75413;SDS011;64758;52.122;5.404;2022-11-15T02:18:57;37.95;;;13.77;;
75413;SDS011;64758;52.122;5.404;2022-11-15T02:21:52;36.27;;;14.00;;
75413;SDS011;64758;52.122;5.404;2022-11-15T02:37:57;36.15;;;13.18;;
75413;SDS011;64758;52.122;5.404;2022-11-15T02:40:39;26.77;;;13.23;;
75413;SDS011;64758;52.122;5.404;2022-11-15T02:49:21;30.53;;;14.17;;
75413;SDS011;64758;52.122;5.404;2022-11-15T02:51:51;30.80;;;13.20;;
75413;SDS011;64758;52.122;5.404;2022-11-15T02:54:21;32.15;;;12.82;;
75413;SDS011;64758;52.122;5.404;2022-11-15T02:56:49;28.35;;;13.38;;
75413;SDS011;64758;52.122;5.404;2022-11-15T03:04:55;32.25;;;12.82;;
75413;SDS011;64758;52.122;5.404;2022-11-15T03:12:41;25.85;;;12.50;;
75413;SDS011;64758;52.122;5.404;2022-11-15T03:15:19;31.60;;;13.67;;
75413;SDS011;64758;52.122;5.404;2022-11-15T03:20:28;29.08;;;13.13;;
75413;SDS011;64758;52.122;5.404;2022-11-15T03:22:58;24.67;;;12.25;;
75413;SDS011;64758;52.122;5.404;2022-11-15T03:25:29;28.90;;;14.23;;
75413;SDS011;64758;52.122;5.404;2022-11-15T03:27:59;26.33;;;12.10;;
75413;SDS011;64758;52.122;5.404;2022-11-15T03:30:31;25.98;;;11.85;;
75413;SDS011;64758;52.122;5.404;2022-11-15T03:33:00;28.00;;;13.23;;
75413;SDS011;64758;52.122;5.404;2022-11-15T03:35:32;25.98;;;11.52;;
75413;SDS011;64758;52.122;5.404;2022-11-15T03:38:22;29.55;;;13.07;;
75413;SDS011;64758;52.122;5.404;2022-11-15T03:40:54;25.63;;;12.20;;
75413;SDS011;64758;52.122;5.404;2022-11-15T03:43:40;28.98;;;13.35;;
75413;SDS011;64758;52.122;5.404;2022-11-15T03:46:16;26.15;;;13.05;;
75413;SDS011;64758;52.122;5.404;2022-11-15T03:48:53;25.75;;;12.50;;
75413;SDS011;64758;52.122;5.404;2022-11-15T03:51:24;29.38;;;12.50;;
75413;SDS011;64758;52.122;5.404;2022-11-15T03:53:50;23.97;;;12.10;;
75413;SDS011;64758;52.122;5.404;2022-11-15T03:56:17;27.45;;;13.10;;
75413;SDS011;64758;52.122;5.404;2022-11-15T03:58:44;25.80;;;12.63;;
75413;SDS011;64758;52.122;5.404;2022-11-15T04:01:10;22.88;;;12.50;;
75413;SDS011;64758;52.122;5.404;2022-11-15T04:03:37;26.00;;;13.73;;
75413;SDS011;64758;52.122;5.404;2022-11-15T04:06:03;27.37;;;13.10;;
75413;SDS011;64758;52.122;5.404;2022-11-15T04:08:30;25.77;;;13.23;;
75413;SDS011;64758;52.122;5.404;2022-11-15T04:10:56;28.45;;;12.43;;
75413;SDS011;64758;52.122;5.404;2022-11-15T04:13:24;27.83;;;13.73;;
75413;SDS011;64758;52.122;5.404;2022-11-15T04:15:51;27.23;;;12.55;;
75413;SDS011;64758;52.122;5.404;2022-11-15T04:18:17;30.33;;;12.73;;
75413;SDS011;64758;52.122;5.404;2022-11-15T04:20:44;29.63;;;13.05;;
75413;SDS011;64758;52.122;5.404;2022-11-15T04:23:29;26.95;;;13.32;;
75413;SDS011;64758;52.122;5.404;2022-11-15T04:26:18;28.45;;;12.85;;
75413;SDS011;64758;52.122;5.404;2022-11-15T04:28:47;27.38;;;12.60;;
75413;SDS011;64758;52.122;5.404;2022-11-15T04:31:46;22.92;;;12.70;;
75413;SDS011;64758;52.122;5.404;2022-11-15T04:34:12;21.35;;;11.77;;
75413;SDS011;64758;52.122;5.404;2022-11-15T04:36:38;25.50;;;13.40;;
75413;SDS011;64758;52.122;5.404;2022-11-15T04:39:23;25.05;;;12.57;;
75413;SDS011;64758;52.122;5.404;2022-11-15T04:41:50;26.23;;;12.63;;
75413;SDS011;64758;52.122;5.404;2022-11-15T04:44:16;23.60;;;12.37;;
75413;SDS011;64758;52.122;5.404;2022-11-15T04:46:43;23.80;;;12.68;;
75413;SDS011;64758;52.122;5.404;2022-11-15T04:49:09;27.52;;;12.98;;
75413;SDS011;64758;52.122;5.404;2022-11-15T04:51:36;24.33;;;12.23;;
75413;SDS011;64758;52.122;5.404;2022-11-15T04:54:02;24.90;;;12.18;;
75413;SDS011;64758;52.122;5.404;2022-11-15T04:56:29;22.40;;;12.23;;
75413;SDS011;64758;52.122;5.404;2022-11-15T04:58:55;24.88;;;12.20;;
75413;SDS011;64758;52.122;5.404;2022-11-15T05:01:22;22.05;;;12.10;;
75413;SDS011;64758;52.122;5.404;2022-11-15T05:03:48;24.73;;;11.82;;
75413;SDS011;64758;52.122;5.404;2022-11-15T05:06:33;22.02;;;11.73;;
75413;SDS011;64758;52.122;5.404;2022-11-15T05:09:00;21.75;;;11.15;;
75413;SDS011;64758;52.122;5.404;2022-11-15T05:11:26;25.10;;;12.18;;
75413;SDS011;64758;52.122;5.404;2022-11-15T05:13:53;20.13;;;12.10;;
75413;SDS011;64758;52.122;5.404;2022-11-15T05:16:20;21.20;;;11.15;;
75413;SDS011;64758;52.122;5.404;2022-11-15T05:18:46;21.85;;;11.25;;
75413;SDS011;64758;52.122;5.404;2022-11-15T05:21:16;25.70;;;12.73;;
75413;SDS011;64758;52.122;5.404;2022-11-15T05:23:42;22.70;;;12.32;;
75413;SDS011;64758;52.122;5.404;2022-11-15T05:26:09;23.95;;;12.20;;
75413;SDS011;64758;52.122;5.404;2022-11-15T05:28:36;23.50;;;12.45;;
75413;SDS011;64758;52.122;5.404;2022-11-15T05:31:04;21.40;;;12.73;;
75413;SDS011;64758;52.122;5.404;2022-11-15T05:33:35;26.42;;;13.55;;
75413;SDS011;64758;52.122;5.404;2022-11-15T05:36:12;22.23;;;11.90;;
75413;SDS011;64758;52.122;5.404;2022-11-15T05:38:40;20.60;;;12.25;;
75413;SDS011;64758;52.122;5.404;2022-11-15T05:41:08;22.42;;;12.30;;
75413;SDS011;64758;52.122;5.404;2022-11-15T05:43:35;24.35;;;12.32;;
75413;SDS011;64758;52.122;5.404;2022-11-15T05:46:03;20.17;;;11.53;;
75413;SDS011;64758;52.122;5.404;2022-11-15T05:48:31;20.33;;;12.15;;
75413;SDS011;64758;52.122;5.404;2022-11-15T05:51:00;20.85;;;12.15;;
75413;SDS011;64758;52.122;5.404;2022-11-15T05:53:29;23.17;;;11.55;;
75413;SDS011;64758;52.122;5.404;2022-11-15T05:55:57;20.33;;;11.13;;
75413;SDS011;64758;52.122;5.404;2022-11-15T05:58:23;20.85;;;12.73;;
75413;SDS011;64758;52.122;5.404;2022-11-15T06:00:50;23.85;;;12.25;;
75413;SDS011;64758;52.122;5.404;2022-11-15T06:03:16;23.77;;;12.27;;
75413;SDS011;64758;52.122;5.404;2022-11-15T06:05:43;18.75;;;11.63;;
75413;SDS011;64758;52.122;5.404;2022-11-15T06:08:09;21.02;;;11.50;;
75413;SDS011;64758;52.122;5.404;2022-11-15T06:10:36;25.40;;;12.30;;
75413;SDS011;64758;52.122;5.404;2022-11-15T06:13:03;25.73;;;12.45;;
75413;SDS011;64758;52.122;5.404;2022-11-15T06:15:31;21.85;;;11.18;;
75413;SDS011;64758;52.122;5.404;2022-11-15T06:18:00;21.60;;;12.15;;
75413;SDS011;64758;52.122;5.404;2022-11-15T06:20:27;21.05;;;12.13;;
75413;SDS011;64758;52.122;5.404;2022-11-15T06:22:58;21.70;;;12.32;;
75413;SDS011;64758;52.122;5.404;2022-11-15T06:25:29;21.95;;;11.68;;
75413;SDS011;64758;52.122;5.404;2022-11-15T06:27:57;20.67;;;11.48;;
75413;SDS011;64758;52.122;5.404;2022-11-15T06:30:25;24.77;;;13.43;;
75413;SDS011;64758;52.122;5.404;2022-11-15T06:33:02;24.90;;;12.20;;
75413;SDS011;64758;52.122;5.404;2022-11-15T06:35:30;22.80;;;12.20;;
75413;SDS011;64758;52.122;5.404;2022-11-15T06:38:06;21.45;;;11.85;;
75413;SDS011;64758;52.122;5.404;2022-11-15T06:40:37;21.15;;;12.95;;
75413;SDS011;64758;52.122;5.404;2022-11-15T06:43:04;20.75;;;11.82;;
75413;SDS011;64758;52.122;5.404;2022-11-15T06:45:32;25.83;;;11.95;;
75413;SDS011;64758;52.122;5.404;2022-11-15T06:47:58;23.10;;;12.63;;
75413;SDS011;64758;52.122;5.404;2022-11-15T06:50:25;24.35;;;12.95;;
75413;SDS011;64758;52.122;5.404;2022-11-15T06:52:51;29.20;;;12.57;;
75413;SDS011;64758;52.122;5.404;2022-11-15T06:55:18;22.83;;;12.15;;
75413;SDS011;64758;52.122;5.404;2022-11-15T06:57:51;22.23;;;12.35;;
75413;SDS011;64758;52.122;5.404;2022-11-15T07:00:19;28.42;;;12.38;;
75413;SDS011;64758;52.122;5.404;2022-11-15T07:02:47;24.27;;;11.75;;
75413;SDS011;64758;52.122;5.404;2022-11-15T07:05:14;21.52;;;11.43;;
75413;SDS011;64758;52.122;5.404;2022-11-15T07:07:41;21.73;;;12.38;;
75413;SDS011;64758;52.122;5.404;2022-11-15T07:10:08;23.15;;;12.18;;
75413;SDS011;64758;52.122;5.404;2022-11-15T07:12:35;22.57;;;12.00;;
75413;SDS011;64758;52.122;5.404;2022-11-15T07:15:02;24.80;;;12.77;;
75413;SDS011;64758;52.122;5.404;2022-11-15T07:17:29;25.38;;;12.63;;
75413;SDS011;64758;52.122;5.404;2022-11-15T07:19:55;20.77;;;12.23;;
75413;SDS011;64758;52.122;5.404;2022-11-15T07:22:21;24.63;;;11.90;;
75413;SDS011;64758;52.122;5.404;2022-11-15T07:24:48;23.38;;;11.57;;
75413;SDS011;64758;52.122;5.404;2022-11-15T07:27:14;22.80;;;11.95;;
75413;SDS011;64758;52.122;5.404;2022-11-15T07:29:41;23.30;;;12.05;;
75413;SDS011;64758;52.122;5.404;2022-11-15T07:32:08;18.73;;;11.13;;
75413;SDS011;64758;52.122;5.404;2022-11-15T07:34:35;20.52;;;11.60;;
75413;SDS011;64758;52.122;5.404;2022-11-15T07:37:01;19.98;;;11.88;;
75413;SDS011;64758;52.122;5.404;2022-11-15T07:39:28;19.67;;;10.45;;
75413;SDS011;64758;52.122;5.404;2022-11-15T07:41:54;23.48;;;11.35;;
75413;SDS011;64758;52.122;5.404;2022-11-15T07:44:41;18.52;;;11.40;;
75413;SDS011;64758;52.122;5.404;2022-11-15T07:47:07;25.40;;;11.95;;
75413;SDS011;64758;52.122;5.404;2022-11-15T07:49:34;18.98;;;10.48;;
75413;SDS011;64758;52.122;5.404;2022-11-15T07:52:00;23.23;;;10.87;;
75413;SDS011;64758;52.122;5.404;2022-11-15T07:54:27;19.20;;;10.52;;
75413;SDS011;64758;52.122;5.404;2022-11-15T07:56:53;18.55;;;9.77;;
75413;SDS011;64758;52.122;5.404;2022-11-15T07:59:20;21.17;;;10.27;;
75413;SDS011;64758;52.122;5.404;2022-11-15T08:01:46;15.85;;;9.32;;
75413;SDS011;64758;52.122;5.404;2022-11-15T08:04:13;15.00;;;9.40;;
75413;SDS011;64758;52.122;5.404;2022-11-15T08:06:40;23.67;;;10.90;;
75413;SDS011;64758;52.122;5.404;2022-11-15T08:09:06;16.27;;;9.57;;
75413;SDS011;64758;52.122;5.404;2022-11-15T08:11:33;15.73;;;9.35;;
75413;SDS011;64758;52.122;5.404;2022-11-15T08:13:59;21.60;;;10.43;;
75413;SDS011;64758;52.122;5.404;2022-11-15T08:16:26;15.85;;;9.20;;
75413;SDS011;64758;52.122;5.404;2022-11-15T08:18:52;23.75;;;9.88;;
75413;SDS011;64758;52.122;5.404;2022-11-15T08:21:19;18.88;;;9.65;;
75413;SDS011;64758;52.122;5.404;2022-11-15T08:23:47;13.68;;;9.23;;
75413;SDS011;64758;52.122;5.404;2022-11-15T08:26:13;19.50;;;10.23;;
75413;SDS011;64758;52.122;5.404;2022-11-15T08:28:40;17.53;;;9.27;;
75413;SDS011;64758;52.122;5.404;2022-11-15T08:31:12;19.90;;;9.52;;
75413;SDS011;64758;52.122;5.404;2022-11-15T08:33:40;16.02;;;9.55;;
75413;SDS011;64758;52.122;5.404;2022-11-15T08:36:09;15.98;;;9.20;;
75413;SDS011;64758;52.122;5.404;2022-11-15T08:38:39;17.15;;;9.30;;
75413;SDS011;64758;52.122;5.404;2022-11-15T08:41:05;17.47;;;8.90;;
75413;SDS011;64758;52.122;5.404;2022-11-15T08:43:32;17.40;;;9.20;;
75413;SDS011;64758;52.122;5.404;2022-11-15T08:46:00;17.52;;;8.98;;
75413;SDS011;64758;52.122;5.404;2022-11-15T08:48:26;15.10;;;9.00;;
75413;SDS011;64758;52.122;5.404;2022-11-15T08:50:53;19.35;;;8.75;;
75413;SDS011;64758;52.122;5.404;2022-11-15T08:53:21;19.53;;;9.60;;
75413;SDS011;64758;52.122;5.404;2022-11-15T08:55:48;16.95;;;9.20;;
75413;SDS011;64758;52.122;5.404;2022-11-15T08:58:14;15.60;;;9.10;;
75413;SDS011;64758;52.122;5.404;2022-11-15T09:00:41;19.67;;;9.95;;
75413;SDS011;64758;52.122;5.404;2022-11-15T09:03:07;16.42;;;9.05;;
75413;SDS011;64758;52.122;5.404;2022-11-15T09:05:35;15.67;;;8.70;;
75413;SDS011;64758;52.122;5.404;2022-11-15T09:08:03;15.20;;;8.60;;
75413;SDS011;64758;52.122;5.404;2022-11-15T09:10:49;17.75;;;9.02;;
75413;SDS011;64758;52.122;5.404;2022-11-15T09:13:16;13.50;;;8.43;;
75413;SDS011;64758;52.122;5.404;2022-11-15T09:15:43;14.38;;;8.75;;
75413;SDS011;64758;52.122;5.404;2022-11-15T09:18:09;14.77;;;8.47;;
75413;SDS011;64758;52.122;5.404;2022-11-15T09:20:36;17.77;;;8.77;;
75413;SDS011;64758;52.122;5.404;2022-11-15T09:23:03;16.95;;;9.05;;
75413;SDS011;64758;52.122;5.404;2022-11-15T09:25:30;15.63;;;8.88;;
75413;SDS011;64758;52.122;5.404;2022-11-15T09:27:57;15.27;;;8.73;;
75413;SDS011;64758;52.122;5.404;2022-11-15T09:30:24;14.07;;;8.40;;
75413;SDS011;64758;52.122;5.404;2022-11-15T09:32:52;14.30;;;8.25;;
75413;SDS011;64758;52.122;5.404;2022-11-15T09:35:18;14.02;;;7.90;;
75413;SDS011;64758;52.122;5.404;2022-11-15T09:37:45;16.60;;;7.53;;
75413;SDS011;64758;52.122;5.404;2022-11-15T09:40:12;10.52;;;6.80;;
75413;SDS011;64758;52.122;5.404;2022-11-15T09:42:52;10.80;;;6.17;;
75413;SDS011;64758;52.122;5.404;2022-11-15T09:45:23;11.60;;;6.43;;
75413;SDS011;64758;52.122;5.404;2022-11-15T09:50:51;11.07;;;5.70;;
75413;SDS011;64758;52.122;5.404;2022-11-15T09:53:25;12.40;;;6.10;;
75413;SDS011;64758;52.122;5.404;2022-11-15T09:56:22;9.30;;;5.17;;
75413;SDS011;64758;52.122;5.404;2022-11-15T10:04:11;6.45;;;4.75;;
75413;SDS011;64758;52.122;5.404;2022-11-15T10:06:38;9.48;;;4.65;;
75413;SDS011;64758;52.122;5.404;2022-11-15T10:09:15;9.47;;;4.70;;
75413;SDS011;64758;52.122;5.404;2022-11-15T10:11:49;8.10;;;5.07;;
75413;SDS011;64758;52.122;5.404;2022-11-15T10:14:17;9.50;;;4.72;;
75413;SDS011;64758;52.122;5.404;2022-11-15T10:24:46;6.10;;;3.55;;
75413;SDS011;64758;52.122;5.404;2022-11-15T10:27:15;4.90;;;3.45;;
75413;SDS011;64758;52.122;5.404;2022-11-15T10:29:44;7.35;;;3.72;;
75413;SDS011;64758;52.122;5.404;2022-11-15T10:32:13;10.05;;;3.45;;
75413;SDS011;64758;52.122;5.404;2022-11-15T10:34:41;5.47;;;3.20;;
75413;SDS011;64758;52.122;5.404;2022-11-15T10:37:08;4.20;;;2.70;;
75413;SDS011;64758;52.122;5.404;2022-11-15T10:39:34;4.82;;;3.08;;
75413;SDS011;64758;52.122;5.404;2022-11-15T10:44:54;5.90;;;2.72;;
75413;SDS011;64758;52.122;5.404;2022-11-15T10:49:59;5.30;;;2.63;;
75413;SDS011;64758;52.122;5.404;2022-11-15T10:52:28;6.85;;;2.38;;
75413;SDS011;64758;52.122;5.404;2022-11-15T10:54:57;4.72;;;2.15;;
75413;SDS011;64758;52.122;5.404;2022-11-15T10:57:29;5.88;;;2.30;;
75413;SDS011;64758;52.122;5.404;2022-11-15T11:00:07;4.27;;;2.43;;
75413;SDS011;64758;52.122;5.404;2022-11-15T11:06:02;3.47;;;2.40;;
75413;SDS011;64758;52.122;5.404;2022-11-15T11:08:31;3.15;;;1.83;;
75413;SDS011;64758;52.122;5.404;2022-11-15T11:10:59;4.13;;;2.20;;
75413;SDS011;64758;52.122;5.404;2022-11-15T11:16:14;5.15;;;2.40;;
75413;SDS011;64758;52.122;5.404;2022-11-15T11:19:08;2.63;;;2.08;;
75413;SDS011;64758;52.122;5.404;2022-11-15T11:30:12;4.75;;;2.08;;
75413;SDS011;64758;52.122;5.404;2022-11-15T11:44:53;3.40;;;1.73;;
75413;SDS011;64758;52.122;5.404;2022-11-15T11:47:01;6.65;;;2.33;;
75413;SDS011;64758;52.122;5.404;2022-11-15T11:57:43;3.72;;;1.17;;
75413;SDS011;64758;52.122;5.404;2022-11-15T12:00:22;2.00;;;1.10;;
75413;SDS011;64758;52.122;5.404;2022-11-15T12:03:02;1.92;;;1.05;;
75413;SDS011;64758;52.122;5.404;2022-11-15T12:05:37;3.83;;;1.10;;
75413;SDS011;64758;52.122;5.404;2022-11-15T12:08:20;4.43;;;0.80;;
75413;SDS011;64758;52.122;5.404;2022-11-15T12:14:04;4.47;;;0.93;;
75413;SDS011;64758;52.122;5.404;2022-11-15T12:16:38;3.67;;;0.60;;
75413;SDS011;64758;52.122;5.404;2022-11-15T12:19:08;3.90;;;0.68;;
75413;SDS011;64758;52.122;5.404;2022-11-15T12:21:41;2.00;;;0.67;;
75413;SDS011;64758;52.122;5.404;2022-11-15T12:24:13;3.42;;;0.50;;
75413;SDS011;64758;52.122;5.404;2022-11-15T12:26:50;3.40;;;0.50;;
75413;SDS011;64758;52.122;5.404;2022-11-15T12:29:56;1.63;;;0.70;;
75413;SDS011;64758;52.122;5.404;2022-11-15T12:34:54;3.03;;;0.70;;
75413;SDS011;64758;52.122;5.404;2022-11-15T12:42:40;2.05;;;0.50;;
75413;SDS011;64758;52.122;5.404;2022-11-15T13:06:46;3.42;;;0.80;;
75413;SDS011;64758;52.122;5.404;2022-11-15T13:19:48;2.67;;;0.88;;
75413;SDS011;64758;52.122;5.404;2022-11-15T13:22:23;4.28;;;0.63;;
75413;SDS011;64758;52.122;5.404;2022-11-15T13:25:18;3.15;;;1.00;;
75413;SDS011;64758;52.122;5.404;2022-11-15T13:30:40;4.13;;;0.75;;
75413;SDS011;64758;52.122;5.404;2022-11-15T13:33:16;2.85;;;0.90;;
75413;SDS011;64758;52.122;5.404;2022-11-15T13:35:46;3.72;;;0.68;;
75413;SDS011;64758;52.122;5.404;2022-11-15T13:38:19;2.42;;;0.82;;
75413;SDS011;64758;52.122;5.404;2022-11-15T13:40:51;4.60;;;1.03;;
75413;SDS011;64758;52.122;5.404;2022-11-15T13:43:25;2.72;;;0.88;;
75413;SDS011;64758;52.122;5.404;2022-11-15T13:46:09;2.22;;;0.80;;
75413;SDS011;64758;52.122;5.404;2022-11-15T13:48:39;5.68;;;0.88;;
75413;SDS011;64758;52.122;5.404;2022-11-15T13:51:18;1.33;;;0.73;;
75413;SDS011;64758;52.122;5.404;2022-11-15T13:53:54;6.43;;;1.50;;
75413;SDS011;64758;52.122;5.404;2022-11-15T13:56:44;5.68;;;1.30;;
75413;SDS011;64758;52.122;5.404;2022-11-15T13:59:17;3.25;;;1.33;;
75413;SDS011;64758;52.122;5.404;2022-11-15T14:01:52;4.25;;;0.98;;
75413;SDS011;64758;52.122;5.404;2022-11-15T14:04:21;1.77;;;0.85;;
75413;SDS011;64758;52.122;5.404;2022-11-15T14:06:50;3.87;;;1.00;;
75413;SDS011;64758;52.122;5.404;2022-11-15T14:11:52;2.13;;;0.90;;
75413;SDS011;64758;52.122;5.404;2022-11-15T14:14:21;7.40;;;1.10;;
75413;SDS011;64758;52.122;5.404;2022-11-15T14:16:50;3.38;;;0.80;;
75413;SDS011;64758;52.122;5.404;2022-11-15T14:24:45;3.78;;;0.73;;
75413;SDS011;64758;52.122;5.404;2022-11-15T14:27:31;4.55;;;0.70;;
75413;SDS011;64758;52.122;5.404;2022-11-15T14:29:58;2.47;;;0.80;;
75413;SDS011;64758;52.122;5.404;2022-11-15T14:32:27;3.50;;;0.70;;
75413;SDS011;64758;52.122;5.404;2022-11-15T14:34:57;2.75;;;0.90;;
75413;SDS011;64758;52.122;5.404;2022-11-15T14:37:29;3.78;;;0.90;;
75413;SDS011;64758;52.122;5.404;2022-11-15T14:40:02;3.00;;;0.82;;
75413;SDS011;64758;52.122;5.404;2022-11-15T14:42:30;5.53;;;0.95;;
75413;SDS011;64758;52.122;5.404;2022-11-15T14:44:57;1.97;;;0.90;;
75413;SDS011;64758;52.122;5.404;2022-11-15T14:47:24;1.17;;;0.70;;
75413;SDS011;64758;52.122;5.404;2022-11-15T14:49:50;4.53;;;0.80;;
75413;SDS011;64758;52.122;5.404;2022-11-15T14:54:58;2.83;;;0.90;;
75413;SDS011;64758;52.122;5.404;2022-11-15T14:57:25;3.33;;;0.90;;
75413;SDS011;64758;52.122;5.404;2022-11-15T14:59:52;5.25;;;0.90;;
75413;SDS011;64758;52.122;5.404;2022-11-15T15:02:22;1.92;;;0.73;;
75413;SDS011;64758;52.122;5.404;2022-11-15T15:04:50;3.15;;;0.80;;
75413;SDS011;64758;52.122;5.404;2022-11-15T15:07:17;4.95;;;0.68;;
75413;SDS011;64758;52.122;5.404;2022-11-15T15:09:44;3.33;;;0.90;;
75413;SDS011;64758;52.122;5.404;2022-11-15T15:12:21;5.15;;;0.68;;
75413;SDS011;64758;52.122;5.404;2022-11-15T15:14:49;2.80;;;0.60;;
75413;SDS011;64758;52.122;5.404;2022-11-15T15:17:16;5.00;;;0.80;;
75413;SDS011;64758;52.122;5.404;2022-11-15T15:19:44;3.67;;;0.82;;
75413;SDS011;64758;52.122;5.404;2022-11-15T15:22:17;1.97;;;0.57;;
75413;SDS011;64758;52.122;5.404;2022-11-15T15:24:45;5.20;;;0.75;;
75413;SDS011;64758;52.122;5.404;2022-11-15T15:27:12;4.38;;;0.80;;
75413;SDS011;64758;52.122;5.404;2022-11-15T15:29:39;3.38;;;0.88;;
75413;SDS011;64758;52.122;5.404;2022-11-15T15:32:06;3.35;;;1.08;;
75413;SDS011;64758;52.122;5.404;2022-11-15T15:34:32;1.57;;;0.60;;
75413;SDS011;64758;52.122;5.404;2022-11-15T15:37:43;3.38;;;0.57;;
75413;SDS011;64758;52.122;5.404;2022-11-15T15:39:54;1.83;;;0.60;;
75413;SDS011;64758;52.122;5.404;2022-11-15T15:42:22;2.95;;;0.90;;
75413;SDS011;64758;52.122;5.404;2022-11-15T15:44:49;3.38;;;0.50;;
75413;SDS011;64758;52.122;5.404;2022-11-15T15:47:18;3.30;;;0.70;;
75413;SDS011;64758;52.122;5.404;2022-11-15T15:49:47;4.30;;;0.70;;
75413;SDS011;64758;52.122;5.404;2022-11-15T15:52:15;1.58;;;0.40;;
75413;SDS011;64758;52.122;5.404;2022-11-15T15:54:42;1.63;;;0.50;;
75413;SDS011;64758;52.122;5.404;2022-11-15T15:57:11;4.05;;;0.40;;
75413;SDS011;64758;52.122;5.404;2022-11-15T15:59:39;1.13;;;0.60;;
75413;SDS011;64758;52.122;5.404;2022-11-15T16:02:06;4.28;;;0.68;;
75413;SDS011;64758;52.122;5.404;2022-11-15T16:04:35;3.03;;;0.52;;
75413;SDS011;64758;52.122;5.404;2022-11-15T16:07:02;2.10;;;0.68;;
75413;SDS011;64758;52.122;5.404;2022-11-15T16:09:30;7.57;;;0.82;;
75413;SDS011;64758;52.122;5.404;2022-11-15T16:12:15;4.07;;;0.70;;
75413;SDS011;64758;52.122;5.404;2022-11-15T16:14:42;2.65;;;0.80;;
75413;SDS011;64758;52.122;5.404;2022-11-15T16:17:11;2.13;;;1.05;;
75413;SDS011;64758;52.122;5.404;2022-11-15T16:19:44;2.20;;;0.95;;
75413;SDS011;64758;52.122;5.404;2022-11-15T16:22:10;3.22;;;0.70;;
75413;SDS011;64758;52.122;5.404;2022-11-15T16:24:38;3.13;;;0.70;;
75413;SDS011;64758;52.122;5.404;2022-11-15T16:27:04;5.38;;;1.40;;
75413;SDS011;64758;52.122;5.404;2022-11-15T16:29:31;3.70;;;1.40;;
75413;SDS011;64758;52.122;5.404;2022-11-15T16:31:58;2.65;;;1.13;;
75413;SDS011;64758;52.122;5.404;2022-11-15T16:34:24;3.50;;;0.90;;
75413;SDS011;64758;52.122;5.404;2022-11-15T16:36:56;3.60;;;1.17;;
75413;SDS011;64758;52.122;5.404;2022-11-15T16:39:22;3.60;;;1.25;;
75413;SDS011;64758;52.122;5.404;2022-11-15T16:41:49;9.05;;;2.20;;
75413;SDS011;64758;52.122;5.404;2022-11-15T16:44:15;18.40;;;5.00;;
75413;SDS011;64758;52.122;5.404;2022-11-15T16:46:42;37.92;;;10.77;;
75413;SDS011;64758;52.122;5.404;2022-11-15T16:49:12;19.53;;;7.00;;
75413;SDS011;64758;52.122;5.404;2022-11-15T16:51:40;12.57;;;3.90;;
75413;SDS011;64758;52.122;5.404;2022-11-15T16:54:07;7.88;;;2.00;;
75413;SDS011;64758;52.122;5.404;2022-11-15T16:56:34;15.73;;;6.28;;
75413;SDS011;64758;52.122;5.404;2022-11-15T16:59:00;8.32;;;2.90;;
75413;SDS011;64758;52.122;5.404;2022-11-15T17:01:28;10.90;;;4.47;;
75413;SDS011;64758;52.122;5.404;2022-11-15T17:04:12;8.57;;;3.65;;
75413;SDS011;64758;52.122;5.404;2022-11-15T17:06:39;8.07;;;4.60;;
75413;SDS011;64758;52.122;5.404;2022-11-15T17:09:14;5.22;;;3.20;;
75413;SDS011;64758;52.122;5.404;2022-11-15T17:11:42;6.38;;;2.10;;
75413;SDS011;64758;52.122;5.404;2022-11-15T17:14:10;2.83;;;1.17;;
75413;SDS011;64758;52.122;5.404;2022-11-15T17:16:37;1.80;;;0.93;;
75413;SDS011;64758;52.122;5.404;2022-11-15T17:19:11;3.28;;;1.15;;